Time;durP1;ratioP1;P1;durP2;ratioP2;P2;SDS_P1;SDS_P2;PMS_P1;PMS_P2;Temp;Humidity;BMP_temperature;BMP_pressure;BME280_temperature;BME280_humidity;BME280_pressure;Samples;Min_cycle;Max_cycle;Signal;HPM_P1;HPM_P2
2023/11/02 00:01:08;;;;;;;;;;;15.30;91.40;;;;;;5018947;28;20436;-82
2023/11/02 00:03:40;;;;;;;0.98;0.50;;;15.30;91.50;;;;;;5019055;28;20339;-82
2023/11/02 00:06:17;;;;;;;0.85;0.50;;;15.30;91.40;;;;;;5035980;28;20024;-82
2023/11/02 00:09:06;;;;;;;1.25;0.70;;;15.30;91.40;;;;;;5017813;28;20461;-82
2023/11/02 00:11:56;;;;;;;1.15;0.60;;;15.40;91.20;;;;;;5019034;28;20061;-82
2023/11/02 00:14:24;;;;;;;1.25;0.57;;;15.40;91.20;;;;;;5018829;28;20033;-82
2023/11/02 00:16:51;;;;;;;1.48;0.65;;;15.40;91.10;;;;;;5018884;28;20025;-81
2023/11/02 00:19:33;;;;;;;1.38;0.60;;;15.40;91.10;;;;;;5035145;28;20487;-83
2023/11/02 00:22:08;;;;;;;1.52;0.50;;;15.40;91.00;;;;;;5018794;28;20039;-82
2023/11/02 00:24:40;;;;;;;1.15;0.50;;;15.40;91.00;;;;;;5019223;28;20758;-81
2023/11/02 00:27:07;;;;;;;1.20;0.60;;;15.40;91.10;;;;;;5018847;28;20049;-83
2023/11/02 00:29:33;;;;;;;0.88;0.50;;;15.40;91.10;;;;;;5018458;28;20483;-82
2023/11/02 00:31:58;;;;;;;1.10;0.60;;;15.40;91.10;;;;;;5036592;28;20117;-83
2023/11/02 00:34:26;;;;;;;2.10;0.70;;;15.40;91.10;;;;;;5036592;28;20032;-83
2023/11/02 00:36:52;;;;;;;1.25;0.65;;;15.40;91.20;;;;;;5036738;28;20075;-83
2023/11/02 00:39:19;;;;;;;1.85;0.60;;;15.30;91.10;;;;;;5034060;28;20064;-83
2023/11/02 00:41:45;;;;;;;1.02;0.70;;;15.30;91.10;;;;;;5018595;28;20438;-82
2023/11/02 00:44:11;;;;;;;1.55;0.50;;;15.30;91.10;;;;;;5035418;28;20112;-83
2023/11/02 00:46:36;;;;;;;1.48;0.70;;;15.30;91.10;;;;;;5019087;28;20029;-82
2023/11/02 00:49:02;;;;;;;1.20;0.57;;;15.30;91.20;;;;;;5036189;28;20100;-82
2023/11/02 00:51:31;;;;;;;0.70;0.50;;;15.30;91.20;;;;;;5035420;28;20503;-82
2023/11/02 00:53:57;;;;;;;1.20;0.68;;;15.30;91.20;;;;;;5035664;28;20025;-83
2023/11/02 00:56:27;;;;;;;0.80;0.50;;;15.30;91.00;;;;;;5018589;28;20487;-82
2023/11/02 00:58:54;;;;;;;2.55;0.60;;;15.30;91.10;;;;;;5018538;28;20033;-83
2023/11/02 01:01:22;;;;;;;1.23;0.60;;;15.30;91.10;;;;;;5018433;28;20514;-82
2023/11/02 01:03:50;;;;;;;1.73;0.90;;;15.30;91.20;;;;;;5018382;28;20486;-82
2023/11/02 01:06:27;;;;;;;1.38;0.60;;;15.30;91.20;;;;;;5036676;28;20040;-82
2023/11/02 01:08:59;;;;;;;1.75;0.60;;;15.30;91.20;;;;;;5035588;28;20083;-83
2023/11/02 01:11:30;;;;;;;0.90;0.50;;;15.30;91.20;;;;;;5018417;28;20510;-82
2023/11/02 01:13:56;;;;;;;1.10;0.70;;;15.30;91.30;;;;;;5018425;28;20030;-83
2023/11/02 01:16:22;;;;;;;1.60;0.70;;;15.30;91.20;;;;;;5018585;28;20883;-83
2023/11/02 01:18:48;;;;;;;0.70;0.50;;;15.30;91.40;;;;;;5017768;28;20072;-82
2023/11/02 01:21:15;;;;;;;1.13;0.50;;;15.30;91.50;;;;;;5018715;28;20116;-83
2023/11/02 01:23:41;;;;;;;0.70;0.60;;;15.30;91.70;;;;;;5018288;28;20487;-82
2023/11/02 01:26:35;;;;;;;0.70;0.50;;;15.30;91.40;;;;;;5035432;28;20152;-83
2023/11/02 01:29:01;;;;;;;1.33;0.63;;;15.30;91.30;;;;;;5034157;28;20030;-82
2023/11/02 01:31:26;;;;;;;1.35;0.45;;;15.30;91.20;;;;;;5036081;28;20025;-82
2023/11/02 01:34:00;;;;;;;0.95;0.50;;;15.40;91.10;;;;;;5035525;28;20026;-82
2023/11/02 01:36:28;;;;;;;0.77;0.50;;;15.40;91.10;;;;;;5035647;28;20032;-82
2023/11/02 01:39:21;;;;;;;1.33;0.63;;;15.40;91.10;;;;;;5017836;28;20035;-82
2023/11/02 01:42:08;;;;;;;1.30;0.63;;;15.40;91.10;;;;;;4981746;28;20035;-82
2023/11/02 01:44:43;;;;;;;1.60;0.70;;;15.40;91.10;;;;;;5035373;28;20028;-82
2023/11/02 01:47:14;;;;;;;1.33;0.68;;;15.30;91.00;;;;;;5017784;28;20048;-82
2023/11/02 01:49:56;;;;;;;0.85;0.50;;;15.30;91.00;;;;;;5017864;28;20033;-82
2023/11/02 01:52:34;;;;;;;1.75;0.60;;;15.30;91.00;;;;;;5018145;28;20033;-82
2023/11/02 01:55:31;;;;;;;0.68;0.50;;;15.30;91.00;;;;;;5017974;28;20451;-82
2023/11/02 01:58:27;;;;;;;1.52;0.60;;;15.30;91.00;;;;;;5018117;28;20030;-82
2023/11/02 02:01:31;;;;;;;1.33;0.57;;;15.30;91.00;;;;;;5017399;28;20032;-83
2023/11/02 02:04:24;;;;;;;1.52;0.60;;;15.30;91.00;;;;;;5017827;28;20396;-82
2023/11/02 02:07:14;;;;;;;0.50;0.45;;;15.30;91.00;;;;;;5017806;28;20029;-82
2023/11/02 02:10:15;;;;;;;1.15;0.57;;;15.30;91.00;;;;;;5035954;28;20022;-82
2023/11/02 02:13:01;;;;;;;0.85;0.60;;;15.30;91.00;;;;;;4968614;28;20030;-83
2023/11/02 02:15:56;;;;;;;0.88;0.50;;;15.30;91.10;;;;;;5017660;28;20877;-82
2023/11/02 02:18:33;;;;;;;1.00;0.50;;;15.30;91.00;;;;;;5017432;28;20076;-82
2023/11/02 02:21:06;;;;;;;1.70;0.50;;;15.20;90.90;;;;;;5017734;28;20034;-82
2023/11/02 02:23:57;;;;;;;1.63;0.55;;;15.20;91.00;;;;;;5017177;28;20124;-82
2023/11/02 02:26:52;;;;;;;0.65;0.40;;;15.30;91.00;;;;;;5035951;28;20150;-82
2023/11/02 02:29:37;;;;;;;0.90;0.40;;;15.30;91.00;;;;;;5016721;28;20025;-83
2023/11/02 02:32:24;;;;;;;1.02;0.50;;;15.20;91.00;;;;;;5035042;28;20470;-83
2023/11/02 02:35:00;;;;;;;1.33;0.50;;;15.30;91.30;;;;;;5034181;28;20036;-82
2023/11/02 02:37:48;;;;;;;1.02;0.55;;;15.30;91.40;;;;;;5016726;28;20041;-82
2023/11/02 02:40:31;;;;;;;1.38;0.57;;;15.20;91.30;;;;;;5006554;28;20025;-82
2023/11/02 02:42:59;;;;;;;0.57;0.50;;;15.30;91.20;;;;;;5016545;28;20116;-82
2023/11/02 02:45:27;;;;;;;0.93;0.68;;;15.30;91.10;;;;;;5017249;28;20075;-83
2023/11/02 02:47:56;;;;;;;0.93;0.60;;;15.30;91.00;;;;;;5034459;28;20017;-82
2023/11/02 02:50:26;;;;;;;0.70;0.50;;;15.30;90.90;;;;;;5034556;28;20029;-82
2023/11/02 02:52:56;;;;;;;1.08;0.60;;;15.30;91.00;;;;;;5017212;28;20087;-82
2023/11/02 02:55:24;;;;;;;1.20;0.50;;;15.40;90.90;;;;;;5034573;28;20075;-83
2023/11/02 02:57:53;;;;;;;0.77;0.60;;;15.30;90.90;;;;;;5017376;28;20484;-82
2023/11/02 03:00:20;;;;;;;1.00;0.73;;;15.30;90.90;;;;;;5017055;28;20119;-83
2023/11/02 03:02:47;;;;;;;1.08;0.50;;;15.30;90.90;;;;;;5018350;28;20155;-82
2023/11/02 03:05:14;;;;;;;1.73;0.60;;;15.30;91.00;;;;;;5020962;28;20168;-83
2023/11/02 03:07:40;;;;;;;0.50;0.50;;;15.30;90.90;;;;;;5038171;28;20044;-84
2023/11/02 03:10:08;;;;;;;1.15;0.60;;;15.30;91.00;;;;;;5020866;28;20087;-82
2023/11/02 03:12:35;;;;;;;1.73;0.80;;;15.30;91.00;;;;;;5039212;28;20516;-82
2023/11/02 03:15:06;;;;;;;0.73;0.50;;;15.30;91.00;;;;;;5038246;28;20033;-83
2023/11/02 03:17:55;;;;;;;1.00;0.50;;;15.20;91.00;;;;;;5021024;28;20038;-82
2023/11/02 03:20:21;;;;;;;1.45;0.60;;;15.30;91.10;;;;;;5037998;28;20030;-82
2023/11/02 03:22:47;;;;;;;1.00;0.50;;;15.30;91.10;;;;;;5018314;28;20113;-83
2023/11/02 03:25:20;;;;;;;0.65;0.43;;;15.30;91.10;;;;;;5019947;28;20093;-82
2023/11/02 03:27:45;;;;;;;0.85;0.50;;;15.20;91.10;;;;;;5020387;28;20028;-83
2023/11/02 03:30:45;;;;;;;1.70;0.60;;;15.20;91.10;;;;;;5020070;28;20415;-82
2023/11/02 03:33:20;;;;;;;;;;;15.20;91.10;;;;;;5037395;28;20104;-82
2023/11/02 03:36:09;;;;;;;0.52;0.40;;;15.20;91.10;;;;;;5020429;28;19909;-83
2023/11/02 03:38:41;;;;;;;1.33;0.40;;;15.20;91.10;;;;;;5020433;28;20026;-83
2023/11/02 03:41:47;;;;;;;1.20;0.60;;;15.20;91.20;;;;;;5038450;28;20026;-83
2023/11/02 03:44:21;;;;;;;1.15;0.50;;;15.20;91.10;;;;;;4957719;29;20027;-82
2023/11/02 03:47:15;;;;;;;0.70;0.50;;;15.20;91.20;;;;;;5029163;28;20033;-83
2023/11/02 03:49:48;;;;;;;0.63;0.55;;;15.20;91.20;;;;;;5019813;28;20025;-84
2023/11/02 03:52:32;;;;;;;0.82;0.60;;;15.20;91.30;;;;;;5019498;28;20514;-83
2023/11/02 03:55:29;;;;;;;0.43;0.35;;;15.20;91.30;;;;;;5019718;28;20380;-82
2023/11/02 03:58:21;;;;;;;0.73;0.40;;;15.30;91.50;;;;;;5020574;28;20025;-83
2023/11/02 04:00:54;;;;;;;0.70;0.50;;;15.30;91.20;;;;;;5019535;28;20033;-82
2023/11/02 04:03:21;;;;;;;1.05;0.47;;;15.30;91.00;;;;;;5037660;28;20021;-82
2023/11/02 04:05:49;;;;;;;1.27;0.50;;;15.30;91.00;;;;;;5019482;28;20479;-82
2023/11/02 04:08:19;;;;;;;1.10;0.50;;;15.30;90.90;;;;;;5020365;28;20132;-82
2023/11/02 04:11:31;;;;;;;0.55;0.50;;;15.30;90.90;;;;;;5019896;28;20022;-82
2023/11/02 04:14:12;;;;;;;0.65;0.50;;;15.30;90.90;;;;;;4976342;28;20066;-82
2023/11/02 04:16:38;;;;;;;1.67;0.52;;;15.30;90.80;;;;;;4976100;28;20027;-82
2023/11/02 04:19:04;;;;;;;1.30;0.60;;;15.30;90.80;;;;;;5013536;28;20041;-83
2023/11/02 04:21:30;;;;;;;0.60;0.50;;;15.30;90.80;;;;;;5019035;28;20029;-82
2023/11/02 04:23:56;;;;;;;1.52;0.52;;;15.30;90.80;;;;;;5019728;28;20028;-82
2023/11/02 04:26:21;;;;;;;0.77;0.60;;;15.20;90.80;;;;;;5036973;28;20034;-82
2023/11/02 04:28:47;;;;;;;1.08;0.60;;;15.30;90.80;;;;;;5019078;28;20025;-83
2023/11/02 04:31:12;;;;;;;0.57;0.50;;;15.20;90.80;;;;;;5019177;28;20026;-83
2023/11/02 04:33:38;;;;;;;1.20;0.60;;;15.20;90.80;;;;;;5037315;28;20080;-83
2023/11/02 04:36:04;;;;;;;2.13;0.60;;;15.20;90.70;;;;;;5037120;28;20033;-83
2023/11/02 04:38:30;;;;;;;2.08;0.60;;;15.30;90.70;;;;;;5018477;28;20029;-83
2023/11/02 04:40:55;;;;;;;1.17;0.60;;;15.20;90.80;;;;;;5019330;28;20025;-83
2023/11/02 04:43:21;;;;;;;2.00;0.60;;;15.20;90.70;;;;;;5018941;28;20033;-83
2023/11/02 04:45:47;;;;;;;2.30;0.63;;;15.20;90.70;;;;;;5036644;28;20036;-82
2023/11/02 04:48:14;;;;;;;1.58;0.60;;;15.20;90.70;;;;;;5018971;28;20018;-82
2023/11/02 04:50:39;;;;;;;1.60;0.80;;;15.20;90.70;;;;;;5018550;28;20117;-83
2023/11/02 04:53:06;;;;;;;1.10;0.70;;;15.20;90.60;;;;;;5019046;28;20479;-82
2023/11/02 04:55:32;;;;;;;1.38;0.45;;;15.20;90.60;;;;;;5018761;28;20021;-82
2023/11/02 04:57:57;;;;;;;1.05;0.52;;;15.20;90.60;;;;;;5018493;28;20548;-82
2023/11/02 05:00:23;;;;;;;0.65;0.50;;;15.20;90.70;;;;;;5035818;28;20491;-82
2023/11/02 05:02:49;;;;;;;0.90;0.60;;;15.20;90.70;;;;;;5018776;28;20029;-84
2023/11/02 05:05:14;;;;;;;0.60;0.40;;;15.20;90.60;;;;;;5018401;28;20025;-83
2023/11/02 05:07:40;;;;;;;1.77;0.60;;;15.20;91.00;;;;;;5036057;28;20022;-82
2023/11/02 05:10:06;;;;;;;1.10;0.70;;;15.20;91.10;;;;;;5035740;28;20021;-82
2023/11/02 05:12:31;;;;;;;1.25;0.55;;;15.20;91.00;;;;;;5035222;28;20034;-83
2023/11/02 05:14:57;;;;;;;1.50;0.50;;;15.30;91.00;;;;;;5006971;28;20049;-83
2023/11/02 05:17:22;;;;;;;2.20;0.60;;;15.30;90.80;;;;;;5017623;28;20025;-83
2023/11/02 05:19:48;;;;;;;1.15;0.65;;;15.20;90.40;;;;;;5017829;28;20037;-83
2023/11/02 05:22:13;;;;;;;1.85;0.63;;;15.30;90.40;;;;;;5020280;28;20545;-83
2023/11/02 05:24:39;;;;;;;1.05;0.60;;;15.30;90.50;;;;;;5019385;28;20057;-82
2023/11/02 05:27:04;;;;;;;1.15;0.60;;;15.20;90.40;;;;;;5018861;28;20032;-84
2023/11/02 05:29:30;;;;;;;1.40;0.63;;;15.30;90.50;;;;;;5017787;28;20018;-83
2023/11/02 05:31:56;;;;;;;2.83;0.80;;;15.40;90.40;;;;;;5036906;28;20384;-83
2023/11/02 05:34:21;;;;;;;1.58;0.68;;;15.30;90.20;;;;;;5016528;28;20100;-83
2023/11/02 05:36:47;;;;;;;0.60;0.43;;;15.20;90.20;;;;;;5018140;28;20033;-83
2023/11/02 05:39:13;;;;;;;0.88;0.50;;;15.30;90.30;;;;;;5033494;28;20037;-83
2023/11/02 05:41:38;;;;;;;1.60;0.80;;;15.20;90.40;;;;;;5018294;28;20718;-84
2023/11/02 05:44:05;;;;;;;1.10;0.65;;;15.20;90.40;;;;;;5017867;28;20056;-82
2023/11/02 05:46:31;;;;;;;1.58;0.88;;;15.20;90.20;;;;;;5014623;28;20021;-80
2023/11/02 05:48:56;;;;;;;1.63;0.70;;;15.20;90.30;;;;;;5014057;28;20462;-81
2023/11/02 05:51:22;;;;;;;2.08;0.60;;;15.20;90.40;;;;;;5031623;28;20031;-82
2023/11/02 05:53:48;;;;;;;0.98;0.70;;;15.20;90.30;;;;;;5031898;28;20069;-81
2023/11/02 05:56:16;;;;;;;1.10;0.60;;;15.20;90.40;;;;;;5032300;28;20025;-82
2023/11/02 05:58:42;;;;;;;1.58;0.57;;;15.20;90.40;;;;;;5012783;28;20056;-81
2023/11/02 06:01:08;;;;;;;1.73;0.50;;;15.20;90.40;;;;;;5013813;28;20025;-81
2023/11/02 06:03:34;;;;;;;1.38;0.60;;;15.20;90.40;;;;;;5014442;28;20026;-82
2023/11/02 06:05:59;;;;;;;1.42;0.60;;;15.20;90.60;;;;;;5015426;28;20025;-82
2023/11/02 06:08:25;;;;;;;1.33;0.50;;;15.20;90.50;;;;;;5014321;28;20095;-84
2023/11/02 06:10:50;;;;;;;1.55;0.70;;;15.20;90.30;;;;;;5014027;28;20492;-82
2023/11/02 06:13:16;;;;;;;1.05;0.60;;;15.10;90.30;;;;;;5015211;28;20037;-84
2023/11/02 06:15:41;;;;;;;2.10;0.70;;;15.20;90.40;;;;;;5030576;28;20475;-82
2023/11/02 06:18:07;;;;;;;1.25;0.50;;;15.20;90.50;;;;;;5032243;28;20028;-83
2023/11/02 06:20:33;;;;;;;0.90;0.60;;;15.10;90.30;;;;;;5013838;28;20034;-82
2023/11/02 06:23:01;;;;;;;2.95;0.80;;;15.20;90.30;;;;;;5013707;28;20020;-81
2023/11/02 06:25:27;;;;;;;1.33;0.70;;;15.20;90.40;;;;;;5013328;28;20021;-82
2023/11/02 06:27:52;;;;;;;1.20;0.52;;;15.20;90.60;;;;;;5013682;28;20487;-81
2023/11/02 06:30:18;;;;;;;1.65;0.57;;;15.20;90.30;;;;;;5013568;28;20030;-82
2023/11/02 06:32:43;;;;;;;2.47;0.88;;;15.20;90.40;;;;;;5013528;28;20083;-81
2023/11/02 06:35:09;;;;;;;1.38;0.60;;;15.20;90.10;;;;;;5031700;28;20040;-80
2023/11/02 06:37:57;;;;;;;2.65;0.60;;;15.20;90.00;;;;;;5015209;28;20104;-82
2023/11/02 06:40:24;;;;;;;1.20;0.60;;;15.30;89.90;;;;;;5016850;28;20035;-81
2023/11/02 06:42:49;;;;;;;2.22;0.55;;;15.20;89.70;;;;;;5033755;28;20526;-80
2023/11/02 06:45:16;;;;;;;1.63;0.60;;;15.30;90.10;;;;;;5016764;28;20116;-82
2023/11/02 06:47:42;;;;;;;2.63;0.65;;;15.20;89.80;;;;;;5017113;28;20030;-80
2023/11/02 06:50:08;;;;;;;2.05;0.90;;;15.30;89.40;;;;;;5017749;28;20037;-81
2023/11/02 06:52:33;;;;;;;1.85;0.50;;;15.20;89.40;;;;;;5017907;28;20029;-81
2023/11/02 06:54:59;;;;;;;1.63;0.70;;;15.20;89.20;;;;;;5018862;28;20093;-81
2023/11/02 06:57:24;;;;;;;2.50;0.63;;;16.30;89.60;;;;;;5017924;28;20037;-82
2023/11/02 06:59:50;;;;;;;1.75;0.80;;;15.20;89.00;;;;;;5035292;28;20036;-81
2023/11/02 07:02:17;;;;;;;3.50;0.63;;;15.20;89.30;;;;;;5036279;28;20829;-79
2023/11/02 07:04:43;;;;;;;6.68;0.80;;;15.20;89.10;;;;;;5019141;28;20022;-82
2023/11/02 07:07:08;;;;;;;1.83;0.75;;;15.20;89.60;;;;;;5035932;28;20022;-81
2023/11/02 07:09:34;;;;;;;1.85;0.60;;;15.10;89.20;;;;;;5016508;28;20759;-82
2023/11/02 07:12:00;;;;;;;1.25;0.65;;;15.10;89.10;;;;;;5017457;28;20779;-81
2023/11/02 07:14:25;;;;;;;3.50;0.80;;;15.10;89.60;;;;;;5034293;28;20046;-81
2023/11/02 07:16:51;;;;;;;2.53;0.60;;;15.20;89.60;;;;;;5016921;28;20267;-80
2023/11/02 07:19:16;;;;;;;2.40;0.63;;;15.10;89.20;;;;;;5033479;28;20039;-81
2023/11/02 07:21:42;;;;;;;2.80;0.60;;;15.10;89.30;;;;;;5016530;28;20032;-81
2023/11/02 07:24:07;;;;;;;1.67;0.50;;;15.10;89.00;;;;;;5016357;28;20080;-81
2023/11/02 07:26:36;;;;;;;0.82;0.60;;;15.10;89.00;;;;;;5016118;28;20025;-81
2023/11/02 07:29:02;;;;;;;2.13;0.70;;;15.20;88.90;;;;;;5033870;28;20033;-80
2023/11/02 07:31:27;;;;;;;1.77;0.55;;;15.20;89.00;;;;;;5015936;28;20042;-80
2023/11/02 07:33:53;;;;;;;1.30;0.65;;;15.10;88.90;;;;;;5016495;28;20024;-80
2023/11/02 07:36:18;;;;;;;2.40;0.73;;;15.20;89.10;;;;;;5015853;28;20021;-80
2023/11/02 07:38:44;;;;;;;1.77;0.75;;;15.10;89.50;;;;;;5015057;28;20036;-81
2023/11/02 07:41:09;;;;;;;1.58;0.60;;;15.10;90.00;;;;;;5015534;28;20029;-81
2023/11/02 07:43:35;;;;;;;2.47;0.52;;;15.10;90.00;;;;;;5015494;28;20480;-81
2023/11/02 07:46:00;;;;;;;1.08;0.70;;;15.20;90.10;;;;;;5032991;28;20029;-81
2023/11/02 07:48:26;;;;;;;1.95;0.50;;;15.20;90.30;;;;;;5014550;28;20493;-81
2023/11/02 07:50:51;;;;;;;1.00;0.60;;;15.20;89.40;;;;;;5014774;28;20056;-81
2023/11/02 07:53:19;;;;;;;1.88;0.63;;;15.20;88.70;;;;;;5014937;28;20100;-81
2023/11/02 07:55:45;;;;;;;1.98;0.68;;;15.20;88.30;;;;;;5015222;28;20056;-81
2023/11/02 07:58:11;;;;;;;1.52;0.77;;;15.20;88.40;;;;;;5032589;28;20491;-81
2023/11/02 08:00:36;;;;;;;0.77;0.40;;;15.20;88.40;;;;;;5032665;28;20503;-81
2023/11/02 08:03:03;;;;;;;2.75;0.70;;;15.20;88.60;;;;;;5014891;28;20021;-81
2023/11/02 08:05:28;;;;;;;0.68;0.38;;;15.20;89.00;;;;;;5015233;28;20025;-81
2023/11/02 08:07:54;;;;;;;1.10;0.50;;;15.30;88.40;;;;;;5015087;28;20025;-80
2023/11/02 08:10:19;;;;;;;2.63;0.70;;;15.20;88.60;;;;;;5032664;28;20120;-81
2023/11/02 08:12:45;;;;;;;1.23;0.70;;;15.20;88.50;;;;;;5014620;28;20097;-81
2023/11/02 08:15:11;;;;;;;2.83;0.60;;;15.20;88.50;;;;;;5032368;28;20380;-81
2023/11/02 08:17:36;;;;;;;0.88;0.50;;;15.20;88.70;;;;;;5015045;28;20062;-81
2023/11/02 08:20:02;;;;;;;1.20;0.52;;;15.20;88.70;;;;;;5014470;28;20091;-81
2023/11/02 08:22:28;;;;;;;1.30;0.60;;;15.20;89.00;;;;;;5014738;28;20021;-81
2023/11/02 08:24:54;;;;;;;1.98;0.70;;;15.20;88.70;;;;;;5014930;28;20026;-81
2023/11/02 08:27:20;;;;;;;1.90;0.75;;;15.10;88.90;;;;;;5014645;28;20026;-80
2023/11/02 08:29:47;;;;;;;2.17;0.63;;;15.20;89.60;;;;;;5032465;28;20034;-81
2023/11/02 08:32:12;;;;;;;1.10;0.50;;;15.20;88.90;;;;;;5014443;28;20033;-81
2023/11/02 08:34:42;;;;;;;1.17;0.50;;;15.10;89.30;;;;;;5015034;28;20514;-81
2023/11/02 08:37:11;;;;;;;1.05;0.50;;;15.10;89.30;;;;;;5032329;28;20022;-81
2023/11/02 08:39:38;;;;;;;1.00;0.55;;;15.10;89.20;;;;;;5032227;28;20132;-80
2023/11/02 08:42:03;;;;;;;1.08;0.50;;;15.10;89.10;;;;;;5014652;28;20696;-81
2023/11/02 08:44:29;;;;;;;1.15;0.50;;;15.10;89.10;;;;;;5032456;28;20021;-82
2023/11/02 08:46:55;;;;;;;2.47;0.70;;;15.10;89.10;;;;;;5014874;28;20021;-81
2023/11/02 08:49:20;;;;;;;1.77;0.60;;;15.10;89.60;;;;;;5014232;28;20120;-82
2023/11/02 08:51:46;;;;;;;1.55;0.50;;;15.10;89.50;;;;;;5014758;28;20118;-81
2023/11/02 08:54:12;;;;;;;1.10;0.57;;;15.10;89.50;;;;;;5014784;28;20025;-82
2023/11/02 08:56:37;;;;;;;0.77;0.55;;;15.10;89.70;;;;;;5014443;28;20552;-81
2023/11/02 08:59:03;;;;;;;1.50;0.65;;;15.10;89.70;;;;;;5031223;28;20025;-82
2023/11/02 09:01:29;;;;;;;2.42;0.73;;;15.10;90.10;;;;;;5013775;28;20036;-81
2023/11/02 09:03:56;;;;;;;1.05;0.50;;;15.20;90.10;;;;;;5032011;28;20029;-81
2023/11/02 09:06:23;;;;;;;2.20;0.60;;;15.20;90.10;;;;;;5013809;28;20025;-81
2023/11/02 09:08:49;;;;;;;1.30;0.50;;;15.20;90.00;;;;;;5013372;28;20025;-81
2023/11/02 09:11:16;;;;;;;0.98;0.50;;;15.20;89.90;;;;;;5014068;28;20018;-81
2023/11/02 09:13:42;;;;;;;1.58;0.40;;;15.20;89.20;;;;;;5031835;28;20487;-81
2023/11/02 09:16:09;;;;;;;1.70;0.60;;;15.20;89.10;;;;;;5014071;28;20079;-81
2023/11/02 09:18:34;;;;;;;2.10;0.55;;;15.30;89.50;;;;;;5013975;28;20025;-81
2023/11/02 09:21:00;;;;;;;1.00;0.50;;;15.30;89.70;;;;;;5014156;28;20033;-81
2023/11/02 09:23:26;;;;;;;1.02;0.50;;;15.30;89.40;;;;;;5031295;28;20026;-81
2023/11/02 09:25:52;;;;;;;0.82;0.50;;;15.40;89.50;;;;;;5031670;28;20025;-81
2023/11/02 09:28:18;;;;;;;1.08;0.50;;;15.30;89.60;;;;;;5013287;28;20032;-81
2023/11/02 09:30:44;;;;;;;1.65;0.52;;;15.30;89.70;;;;;;5031376;28;20029;-81
2023/11/02 09:33:11;;;;;;;1.00;0.52;;;15.30;89.70;;;;;;5013769;28;20036;-81
2023/11/02 09:35:37;;;;;;;0.85;0.40;;;15.20;89.70;;;;;;5014002;28;20060;-82
2023/11/02 09:38:03;;;;;;;1.50;0.60;;;15.30;90.00;;;;;;5030811;28;20115;-82
2023/11/02 09:40:29;;;;;;;0.50;0.40;;;15.30;90.00;;;;;;5013254;28;20026;-81
2023/11/02 09:42:54;;;;;;;1.60;0.60;;;15.20;90.10;;;;;;5030930;28;20037;-81
2023/11/02 09:45:20;;;;;;;1.00;0.45;;;15.20;90.00;;;;;;5031077;28;20064;-81
2023/11/02 09:47:46;;;;;;;1.25;0.50;;;15.20;90.00;;;;;;5013899;28;20510;-81
2023/11/02 09:50:12;;;;;;;1.17;0.50;;;15.20;90.00;;;;;;5013394;28;20492;-81
2023/11/02 09:52:38;;;;;;;1.52;0.60;;;15.20;90.10;;;;;;5013780;28;20030;-81
2023/11/02 09:55:05;;;;;;;1.33;0.50;;;15.20;90.00;;;;;;5013883;28;20087;-81
2023/11/02 09:57:35;;;;;;;0.95;0.52;;;15.20;90.00;;;;;;5013964;28;20491;-81
2023/11/02 10:00:03;;;;;;;1.35;0.50;;;15.20;90.00;;;;;;5030582;28;20033;-81
2023/11/02 10:02:29;;;;;;;1.52;0.60;;;15.20;90.10;;;;;;5031640;28;20029;-81
2023/11/02 10:04:54;;;;;;;1.50;0.60;;;15.20;90.10;;;;;;5013306;28;20084;-82
2023/11/02 10:07:20;;;;;;;1.00;0.50;;;15.20;90.10;;;;;;5031175;28;20029;-81
2023/11/02 10:09:48;;;;;;;0.88;0.50;;;15.20;90.10;;;;;;5013971;28;20102;-81
2023/11/02 10:12:13;;;;;;;0.73;0.50;;;15.20;90.10;;;;;;5015761;28;20404;-81
2023/11/02 10:14:39;;;;;;;1.38;0.50;;;15.20;90.10;;;;;;5017907;28;20063;-81
2023/11/02 10:17:05;;;;;;;1.52;0.60;;;15.20;90.10;;;;;;5017201;28;20571;-81
2023/11/02 10:19:32;;;;;;;2.47;0.50;;;15.20;90.10;;;;;;5017326;28;20033;-81
2023/11/02 10:21:59;;;;;;;1.40;0.50;;;15.20;90.00;;;;;;5016557;28;20030;-81
2023/11/02 10:24:33;;;;;;;0.80;0.50;;;15.20;89.70;;;;;;5033680;28;20113;-81
2023/11/02 10:26:59;;;;;;;1.48;0.47;;;15.30;90.00;;;;;;5016904;28;20036;-81
2023/11/02 10:29:25;;;;;;;1.25;0.50;;;15.30;89.30;;;;;;5033354;28;20036;-81
2023/11/02 10:31:54;;;;;;;0.73;0.32;;;15.30;89.40;;;;;;5016374;28;20116;-81
2023/11/02 10:34:20;;;;;;;1.10;0.40;;;15.30;89.20;;;;;;5017324;28;20021;-81
2023/11/02 10:36:48;;;;;;;2.33;0.68;;;15.30;89.10;;;;;;5016879;28;20026;-82
2023/11/02 10:39:21;;;;;;;1.60;0.32;;;15.30;89.30;;;;;;5016807;28;20030;-81
2023/11/02 10:41:59;;;;;;;0.80;0.30;;;15.30;89.20;;;;;;5034768;28;20032;-81
2023/11/02 10:44:31;;;;;;;1.00;0.40;;;15.30;89.30;;;;;;5016230;28;20022;-81
2023/11/02 10:47:01;;;;;;;0.90;0.50;;;15.30;89.40;;;;;;5016988;28;20503;-81
2023/11/02 10:49:35;;;;;;;0.90;0.50;;;15.30;89.60;;;;;;5016301;28;20099;-82
2023/11/02 10:52:08;;;;;;;0.40;0.40;;;15.30;89.60;;;;;;5016916;28;20029;-81
2023/11/02 10:55:03;;;;;;;1.08;0.60;;;15.20;89.50;;;;;;5034664;28;20030;-81
2023/11/02 10:57:29;;;;;;;0.57;0.40;;;15.30;89.60;;;;;;5016755;28;20446;-82
2023/11/02 10:59:59;;;;;;;1.30;0.50;;;15.20;89.80;;;;;;5034049;28;20029;-82
2023/11/02 11:02:25;;;;;;;0.57;0.40;;;15.20;89.80;;;;;;5034520;28;20487;-81
2023/11/02 11:04:52;;;;;;;1.15;0.50;;;15.20;89.80;;;;;;5016560;28;20025;-81
2023/11/02 11:07:19;;;;;;;0.88;0.40;;;15.30;90.00;;;;;;5034908;28;20025;-81
2023/11/02 11:09:49;;;;;;;1.15;0.50;;;15.30;90.00;;;;;;5016377;28;20761;-81
2023/11/02 11:12:17;;;;;;;0.77;0.40;;;15.30;90.00;;;;;;5034574;28;20025;-81
2023/11/02 11:14:43;;;;;;;0.70;0.50;;;15.30;90.00;;;;;;5016476;28;20033;-82
2023/11/02 11:17:10;;;;;;;1.15;0.50;;;15.30;89.90;;;;;;5016927;28;20243;-81
2023/11/02 11:19:35;;;;;;;0.50;0.45;;;15.30;90.00;;;;;;5015847;28;20037;-81
2023/11/02 11:22:09;;;;;;;0.95;0.30;;;15.20;89.90;;;;;;5016262;28;20036;-82
2023/11/02 11:24:34;;;;;;;0.40;0.40;;;15.20;89.90;;;;;;5015508;28;20029;-81
2023/11/02 11:27:02;;;;;;;1.58;0.40;;;15.20;90.00;;;;;;5016178;28;20498;-80
2023/11/02 11:29:39;;;;;;;0.65;0.45;;;15.20;89.80;;;;;;5033341;28;20506;-80
2023/11/02 11:32:08;;;;;;;1.05;0.40;;;15.30;90.00;;;;;;5015977;28;20037;-80
2023/11/02 11:34:55;;;;;;;0.65;0.40;;;15.20;90.00;;;;;;5016015;28;20029;-81
2023/11/02 11:37:34;;;;;;;0.57;0.40;;;15.30;90.00;;;;;;5015392;28;20037;-80
2023/11/02 11:40:03;;;;;;;0.45;0.40;;;15.30;90.00;;;;;;5025127;28;20040;-81
2023/11/02 11:43:12;;;;;;;0.75;0.47;;;15.30;89.70;;;;;;5041417;28;20022;-80
2023/11/02 11:45:45;;;;;;;0.77;0.45;;;15.30;89.30;;;;;;5032793;28;20024;-80
2023/11/02 11:48:11;;;;;;;1.17;0.50;;;15.30;89.30;;;;;;5015062;28;20032;-80
2023/11/02 11:50:38;;;;;;;1.38;0.32;;;15.40;89.00;;;;;;5015073;28;20097;-81
2023/11/02 11:53:18;;;;;;;0.40;0.40;;;15.40;89.00;;;;;;5033402;28;20091;-81
2023/11/02 11:55:52;;;;;;;0.88;0.40;;;15.40;89.00;;;;;;5033171;28;20083;-80
2023/11/02 11:58:44;;;;;;;0.50;0.40;;;15.40;89.00;;;;;;5015789;28;20080;-80
2023/11/02 12:01:18;;;;;;;1.40;0.45;;;15.30;89.20;;;;;;5011590;28;20594;-80
2023/11/02 12:03:45;;;;;;;0.30;0.28;;;15.40;89.40;;;;;;5015675;28;20040;-80
2023/11/02 12:06:14;;;;;;;0.30;0.30;;;15.30;89.50;;;;;;5015216;28;20116;-80
2023/11/02 12:08:47;;;;;;;0.30;0.30;;;15.30;89.50;;;;;;5015484;28;20121;-83
2023/11/02 12:11:13;;;;;;;1.13;0.40;;;15.30;89.60;;;;;;5033123;28;20030;-80
2023/11/02 12:14:00;;;;;;;0.90;0.40;;;15.30;89.70;;;;;;5015810;28;20021;-80
2023/11/02 12:16:33;;;;;;;0.55;0.40;;;15.30;89.70;;;;;;5015131;28;20076;-79
2023/11/02 12:18:59;;;;;;;0.98;0.50;;;15.30;89.70;;;;;;5014780;28;20025;-81
2023/11/02 12:21:25;;;;;;;0.75;0.50;;;15.30;89.70;;;;;;5014907;28;20087;-80
2023/11/02 12:23:52;;;;;;;1.30;0.45;;;15.20;89.80;;;;;;5015134;28;20069;-81
2023/11/02 12:26:24;;;;;;;1.10;0.40;;;15.30;89.70;;;;;;5014845;28;20415;-81
2023/11/02 12:28:51;;;;;;;0.50;0.40;;;15.20;89.80;;;;;;5030943;28;20798;-80
2023/11/02 12:31:31;;;;;;;0.98;0.40;;;15.20;89.80;;;;;;5015302;28;20022;-81
2023/11/02 12:33:58;;;;;;;0.90;0.40;;;15.20;89.90;;;;;;5014519;28;20025;-81
2023/11/02 12:36:23;;;;;;;1.08;0.50;;;15.20;89.70;;;;;;5015254;28;20087;-81
2023/11/02 12:38:51;;;;;;;1.30;0.63;;;15.30;89.90;;;;;;5015163;28;20021;-80
2023/11/02 12:41:23;;;;;;;0.95;0.50;;;15.30;89.90;;;;;;5014828;28;20022;-81
2023/11/02 12:43:52;;;;;;;0.73;0.47;;;15.20;89.70;;;;;;5032360;28;20487;-81
2023/11/02 12:46:20;;;;;;;0.88;0.45;;;15.20;89.80;;;;;;5014797;28;20088;-81
2023/11/02 12:48:46;;;;;;;0.43;0.35;;;15.20;89.70;;;;;;5031779;28;20032;-80
2023/11/02 12:51:15;;;;;;;1.08;0.40;;;15.20;89.70;;;;;;5014254;28;20096;-80
2023/11/02 12:53:42;;;;;;;0.63;0.50;;;15.20;89.60;;;;;;5014397;28;20597;-81
2023/11/02 12:56:09;;;;;;;1.15;0.50;;;15.20;89.30;;;;;;5014429;28;20736;-80
2023/11/02 12:58:36;;;;;;;0.82;0.35;;;15.20;89.10;;;;;;5031317;28;20017;-82
2023/11/02 13:01:02;;;;;;;1.45;0.60;;;15.30;89.10;;;;;;5013336;28;20037;-80
2023/11/02 13:03:28;;;;;;;1.35;0.50;;;15.30;89.10;;;;;;5013797;28;20025;-81